createdAt,value
2023-03-19T00:00:56.151Z,9.70
2023-03-19T00:03:23.745Z,9.75
2023-03-19T00:05:53.092Z,9.15
2023-03-19T00:08:20.928Z,9.38
2023-03-19T00:10:48.525Z,9.07
2023-03-19T00:13:16.356Z,8.40
2023-03-19T00:15:47.150Z,9.77
2023-03-19T00:18:15.174Z,9.85
2023-03-19T00:20:44.737Z,10.07
2023-03-19T00:23:12.596Z,10.32
2023-03-19T00:25:42.071Z,10.45
2023-03-19T00:28:10.097Z,10.18
2023-03-19T00:30:37.795Z,9.70
2023-03-19T00:33:08.063Z,9.45
2023-03-19T00:35:36.249Z,8.57
2023-03-19T00:38:04.606Z,7.97
2023-03-19T00:40:34.815Z,7.93
2023-03-19T00:43:02.448Z,8.20
2023-03-19T00:45:30.876Z,8.70
2023-03-19T00:47:59.019Z,8.25
2023-03-19T00:50:28.546Z,7.90
2023-03-19T00:52:57.106Z,7.95
2023-03-19T00:55:25.543Z,8.70
2023-03-19T00:57:53.171Z,9.73
2023-03-19T01:00:21.612Z,8.57
2023-03-19T01:02:49.286Z,8.70
2023-03-19T01:05:18.252Z,8.52
2023-03-19T01:07:47.886Z,8.70
2023-03-19T01:10:16.811Z,9.05
2023-03-19T01:12:44.515Z,8.40
2023-03-19T01:15:13.642Z,8.45
2023-03-19T01:17:42.268Z,8.68
2023-03-19T01:20:13.156Z,9.98
2023-03-19T01:22:42.806Z,9.75
2023-03-19T01:25:16.015Z,9.40
2023-03-19T01:27:53.528Z,9.35
2023-03-19T01:30:21.791Z,9.10
2023-03-19T01:33:27.947Z,9.40
2023-03-19T01:36:05.284Z,9.05
2023-03-19T01:38:51.651Z,9.27
2023-03-19T01:41:21.652Z,9.02
2023-03-19T01:43:51.048Z,9.10
2023-03-19T01:46:39.349Z,11.63
2023-03-19T01:49:28.513Z,10.90
2023-03-19T01:52:16.890Z,10.65
2023-03-19T01:55:17.885Z,10.05
2023-03-19T01:58:08.712Z,9.55
2023-03-19T02:03:27.979Z,9.32
2023-03-19T02:06:06.230Z,9.05
2023-03-19T02:08:34.838Z,9.45
2023-03-19T02:11:02.615Z,9.13
2023-03-19T02:13:32.061Z,9.10
2023-03-19T02:15:59.809Z,9.13
2023-03-19T02:18:27.631Z,9.30
2023-03-19T02:21:01.883Z,9.13
2023-03-19T02:23:39.359Z,8.82
2023-03-19T02:26:17.964Z,9.15
2023-03-19T02:28:50.053Z,9.05
2023-03-19T02:31:25.835Z,8.50
2023-03-19T02:33:58.634Z,8.25
2023-03-19T02:36:30.730Z,8.18
2023-03-19T02:39:01.986Z,8.00
2023-03-19T02:44:27.820Z,7.72
2023-03-19T02:46:55.827Z,8.10
2023-03-19T02:49:25.160Z,8.40
2023-03-19T02:51:52.896Z,8.60
2023-03-19T02:54:21.081Z,7.68
2023-03-19T02:56:52.294Z,7.45
2023-03-19T02:59:20.610Z,7.90
2023-03-19T03:01:48.622Z,7.22
2023-03-19T03:04:16.654Z,7.50
2023-03-19T03:06:45.658Z,7.43
2023-03-19T03:09:14.004Z,7.90
2023-03-19T03:11:42.810Z,7.30
2023-03-19T03:14:12.871Z,6.63
2023-03-19T03:16:41.845Z,7.53
2023-03-19T03:19:09.521Z,6.20
2023-03-19T03:21:37.208Z,5.78
2023-03-19T03:24:05.806Z,6.22
2023-03-19T03:26:38.717Z,6.40
2023-03-19T03:29:08.091Z,6.60
2023-03-19T03:31:37.242Z,6.05
2023-03-19T03:34:05.802Z,6.70
2023-03-19T03:36:33.922Z,6.88
2023-03-19T03:39:01.759Z,7.40
2023-03-19T03:41:34.071Z,6.95
2023-03-19T03:44:03.274Z,7.13
2023-03-19T03:46:34.908Z,7.27
2023-03-19T03:49:04.680Z,7.28
2023-03-19T03:51:32.823Z,7.80
2023-03-19T03:54:02.275Z,7.00
2023-03-19T03:56:31.341Z,7.00
2023-03-19T03:58:59.808Z,7.38
2023-03-19T04:01:28.140Z,7.93
2023-03-19T04:03:57.878Z,8.05
2023-03-19T04:06:28.866Z,7.82
2023-03-19T04:09:22.360Z,7.75
2023-03-19T04:11:51.804Z,8.48
2023-03-19T04:14:20.231Z,7.68
2023-03-19T04:16:48.902Z,7.55
2023-03-19T04:19:16.879Z,7.65
2023-03-19T04:21:45.895Z,8.00
2023-03-19T04:24:14.181Z,6.93
2023-03-19T04:26:42.145Z,7.75
2023-03-19T04:29:09.780Z,7.90
2023-03-19T04:31:38.514Z,7.70
2023-03-19T04:34:07.010Z,7.38
2023-03-19T04:36:35.509Z,8.10
2023-03-19T04:39:04.828Z,7.70
2023-03-19T04:41:34.949Z,7.90
2023-03-19T04:44:21.772Z,7.45
2023-03-19T04:46:49.908Z,8.18
2023-03-19T04:49:20.721Z,7.90
2023-03-19T04:51:51.473Z,7.85
2023-03-19T04:54:20.709Z,7.50
2023-03-19T04:56:48.661Z,8.15
2023-03-19T04:59:17.154Z,7.60
2023-03-19T05:01:44.810Z,8.07
2023-03-19T05:04:13.946Z,7.35
2023-03-19T05:06:42.198Z,7.82
2023-03-19T05:09:09.981Z,7.18
2023-03-19T05:11:38.979Z,7.85
2023-03-19T05:14:12.474Z,8.55
2023-03-19T05:16:58.960Z,7.65
2023-03-19T05:19:41.345Z,8.65
2023-03-19T05:22:10.259Z,8.18
2023-03-19T05:24:39.316Z,8.73
2023-03-19T05:27:10.203Z,9.00
2023-03-19T05:29:43.938Z,8.43
2023-03-19T05:32:24.099Z,8.77
2023-03-19T05:34:52.222Z,8.55
2023-03-19T05:37:21.647Z,8.23
2023-03-19T05:39:56.814Z,8.15
2023-03-19T05:42:25.901Z,8.13
2023-03-19T05:44:57.295Z,8.15
2023-03-19T05:47:28.907Z,7.05
2023-03-19T05:49:59.296Z,6.97
2023-03-19T05:52:27.271Z,7.40
2023-03-19T05:54:58.145Z,7.37
2023-03-19T05:57:38.896Z,7.35
2023-03-19T06:00:15.957Z,8.05
2023-03-19T06:02:45.896Z,6.80
2023-03-19T06:05:32.913Z,7.97
2023-03-19T06:08:10.814Z,7.30
2023-03-19T06:10:56.902Z,7.43
2023-03-19T06:13:27.814Z,7.00
2023-03-19T06:16:00.270Z,6.88
2023-03-19T06:18:33.373Z,6.75
2023-03-19T06:21:06.032Z,7.18
2023-03-19T06:23:34.794Z,6.60
2023-03-19T06:26:06.865Z,6.43
2023-03-19T06:28:46.084Z,7.00
2023-03-19T06:31:14.535Z,6.78
2023-03-19T06:33:54.309Z,6.00
2023-03-19T06:36:24.808Z,6.38
2023-03-19T06:38:52.720Z,6.35
2023-03-19T06:41:21.190Z,6.40
2023-03-19T06:43:52.307Z,6.47
2023-03-19T06:46:20.730Z,6.15
2023-03-19T06:48:49.643Z,5.80
2023-03-19T06:51:18.852Z,6.47
2023-03-19T06:53:46.400Z,6.55
2023-03-19T06:56:14.234Z,5.95
2023-03-19T06:58:43.288Z,5.78
2023-03-19T07:01:12.334Z,5.75
2023-03-19T07:03:39.917Z,5.53
2023-03-19T07:06:07.868Z,5.22
2023-03-19T07:08:36.228Z,5.13
2023-03-19T07:11:05.807Z,5.05
2023-03-19T07:13:33.550Z,4.82
2023-03-19T07:16:01.883Z,4.55
2023-03-19T07:18:31.521Z,5.00
2023-03-19T07:20:59.353Z,4.55
2023-03-19T07:23:27.106Z,4.53
2023-03-19T07:25:55.659Z,4.55
2023-03-19T07:28:23.809Z,5.68
2023-03-19T07:30:52.517Z,5.10
2023-03-19T07:33:20.963Z,5.38
2023-03-19T07:35:50.849Z,6.10
2023-03-19T07:38:18.473Z,5.80
2023-03-19T07:41:01.503Z,7.50
2023-03-19T07:43:30.797Z,8.75
2023-03-19T07:45:59.995Z,7.82
2023-03-19T07:48:27.697Z,7.47
2023-03-19T07:50:57.610Z,7.03
2023-03-19T07:53:26.022Z,7.20
2023-03-19T07:55:54.256Z,7.57
2023-03-19T07:58:22.339Z,7.20
2023-03-19T08:00:50.949Z,7.25
2023-03-19T08:03:19.921Z,7.72
2023-03-19T08:05:50.481Z,9.45
2023-03-19T08:08:19.797Z,9.00
2023-03-19T08:10:50.659Z,9.20
2023-03-19T08:13:18.830Z,8.63
2023-03-19T08:15:46.890Z,8.25
2023-03-19T08:18:15.468Z,8.57
2023-03-19T08:20:45.028Z,7.97
2023-03-19T08:23:16.157Z,7.50
2023-03-19T08:25:45.369Z,7.00
2023-03-19T08:28:16.346Z,6.82
2023-03-19T08:30:46.019Z,6.80
2023-03-19T08:38:35.906Z,6.82
2023-03-19T08:41:06.150Z,6.05
2023-03-19T08:43:36.581Z,5.57
2023-03-19T08:46:05.005Z,5.50
2023-03-19T08:48:33.226Z,6.18
2023-03-19T08:51:03.727Z,5.47
2023-03-19T08:53:32.483Z,5.45
2023-03-19T08:56:01.821Z,6.05
2023-03-19T08:58:30.863Z,6.53
2023-03-19T09:01:03.006Z,5.82
2023-03-19T09:03:31.994Z,5.43
2023-03-19T09:06:01.512Z,6.07
2023-03-19T09:08:30.617Z,5.25
2023-03-19T09:10:59.883Z,5.65
2023-03-19T09:13:28.672Z,5.60
2023-03-19T09:15:57.918Z,5.32
2023-03-19T09:18:27.896Z,5.05
2023-03-19T09:20:56.838Z,5.15
2023-03-19T09:23:24.484Z,5.05
2023-03-19T09:25:55.845Z,5.80
2023-03-19T09:28:24.897Z,5.45
2023-03-19T09:30:52.980Z,5.75
2023-03-19T09:33:22.220Z,5.75
2023-03-19T09:35:52.448Z,5.85
2023-03-19T09:38:20.942Z,6.18
2023-03-19T09:40:51.832Z,7.32
2023-03-19T09:43:39.905Z,6.05
2023-03-19T09:46:15.766Z,8.07
2023-03-19T09:48:50.821Z,7.38
2023-03-19T09:51:24.161Z,9.02
2023-03-19T09:53:57.993Z,9.48
2023-03-19T09:56:27.861Z,9.98
2023-03-19T09:58:55.663Z,10.82
2023-03-19T10:01:28.953Z,10.23
2023-03-19T10:04:16.363Z,10.05
2023-03-19T10:06:45.468Z,12.10
2023-03-19T10:09:33.856Z,11.65
2023-03-19T10:12:11.838Z,11.25
2023-03-19T10:15:08.715Z,11.20
2023-03-19T10:17:40.822Z,10.38
2023-03-19T10:20:21.238Z,10.65
2023-03-19T10:22:54.563Z,12.13
2023-03-19T10:25:25.954Z,10.75
2023-03-19T10:28:00.272Z,10.68
2023-03-19T10:30:32.657Z,10.88
2023-03-19T10:33:09.020Z,9.85
2023-03-19T10:35:42.968Z,10.15
2023-03-19T10:38:21.140Z,11.77
2023-03-19T10:41:04.851Z,12.63
2023-03-19T10:43:34.809Z,12.20
2023-03-19T10:46:05.912Z,11.77
2023-03-19T10:48:35.055Z,11.70
2023-03-19T10:51:06.528Z,10.85
2023-03-19T10:53:35.893Z,10.80
2023-03-19T10:56:06.845Z,10.75
2023-03-19T10:58:36.275Z,9.35
2023-03-19T11:01:07.668Z,9.73
2023-03-19T11:03:37.790Z,8.90
2023-03-19T11:06:19.817Z,8.77
2023-03-19T11:08:56.264Z,7.80
2023-03-19T11:11:26.848Z,8.05
2023-03-19T11:13:54.576Z,7.97
2023-03-19T11:16:22.324Z,8.93
2023-03-19T11:18:50.939Z,8.00
2023-03-19T11:21:28.905Z,7.95
2023-03-19T11:24:02.875Z,8.32
2023-03-19T11:26:34.585Z,8.70
2023-03-19T11:29:05.954Z,8.40
2023-03-19T11:31:41.570Z,8.02
2023-03-19T11:34:21.032Z,7.22
2023-03-19T11:36:57.847Z,7.38
2023-03-19T11:39:38.886Z,7.50
2023-03-19T11:42:25.129Z,6.82
2023-03-19T11:45:03.526Z,7.30
2023-03-19T11:47:41.869Z,6.47
2023-03-19T11:50:22.122Z,6.57
2023-03-19T11:53:19.147Z,6.30
2023-03-19T11:55:53.943Z,7.18
2023-03-19T11:58:45.579Z,6.95
2023-03-19T12:01:27.130Z,6.13
2023-03-19T12:04:21.036Z,6.63
2023-03-19T12:06:57.859Z,7.55
2023-03-19T12:09:36.360Z,6.90
2023-03-19T12:12:19.618Z,6.70
2023-03-19T12:15:00.468Z,7.00
2023-03-19T12:17:45.782Z,6.75
2023-03-19T12:20:41.050Z,7.22
2023-03-19T12:23:16.422Z,7.40
2023-03-19T12:26:04.402Z,7.22
2023-03-19T12:28:33.978Z,6.70
2023-03-19T12:31:18.263Z,6.70
2023-03-19T12:33:50.383Z,6.50
2023-03-19T12:36:24.249Z,6.55
2023-03-19T12:38:57.291Z,6.85
2023-03-19T12:41:29.842Z,7.80
2023-03-19T12:44:02.983Z,7.97
2023-03-19T12:46:34.922Z,8.05
2023-03-19T12:49:08.007Z,8.10
2023-03-19T12:51:40.445Z,9.80
2023-03-19T12:54:15.105Z,10.13
2023-03-19T12:56:50.010Z,11.45
2023-03-19T12:59:25.768Z,10.60
2023-03-19T13:02:00.777Z,10.25
2023-03-19T13:04:34.055Z,11.52
2023-03-19T13:07:07.861Z,10.90
2023-03-19T13:09:41.928Z,12.57
2023-03-19T13:12:18.416Z,11.80
2023-03-19T13:14:53.864Z,11.98
2023-03-19T13:17:27.926Z,12.60
2023-03-19T13:19:56.825Z,13.63
2023-03-19T13:22:28.938Z,13.88
2023-03-19T13:24:57.950Z,13.30
2023-03-19T13:27:31.325Z,13.13
2023-03-19T13:30:16.898Z,13.15
2023-03-19T13:32:49.246Z,12.73
2023-03-19T13:35:34.649Z,13.02
2023-03-19T13:38:07.627Z,13.30
2023-03-19T13:40:44.784Z,11.95
2023-03-19T13:43:42.875Z,12.45
2023-03-19T13:46:46.099Z,11.15
2023-03-19T13:49:28.773Z,10.30
2023-03-19T13:52:01.337Z,10.48
2023-03-19T13:54:40.297Z,9.65
2023-03-19T13:57:24.856Z,9.10
2023-03-19T13:59:56.472Z,8.05
2023-03-19T14:02:48.441Z,7.78
2023-03-19T14:05:22.589Z,8.43
2023-03-19T14:07:55.964Z,7.32
2023-03-19T14:10:27.840Z,8.00
2023-03-19T14:13:10.043Z,7.35
2023-03-19T14:15:48.910Z,7.22
2023-03-19T14:18:20.103Z,6.35
2023-03-19T14:20:59.205Z,6.97
2023-03-19T14:23:39.582Z,7.40
2023-03-19T14:26:17.534Z,7.43
2023-03-19T14:28:55.762Z,7.32
2023-03-19T14:31:41.558Z,7.53
2023-03-19T14:34:22.859Z,7.80
2023-03-19T14:36:58.795Z,7.85
2023-03-19T14:39:30.031Z,7.70
2023-03-19T14:42:03.932Z,8.07
2023-03-19T14:45:16.842Z,7.82
2023-03-19T14:48:04.966Z,8.32
2023-03-19T14:51:12.902Z,7.40
2023-03-19T14:53:46.021Z,7.82
2023-03-19T14:56:17.153Z,6.90
2023-03-19T14:58:52.202Z,7.47
2023-03-19T15:01:51.928Z,7.20
2023-03-19T15:04:27.120Z,6.72
2023-03-19T15:06:58.962Z,6.85
2023-03-19T15:12:20.728Z,7.45
2023-03-19T15:15:09.594Z,6.70
2023-03-19T15:17:38.842Z,7.00
2023-03-19T15:20:18.418Z,6.78
2023-03-19T15:22:54.932Z,7.47
2023-03-19T15:25:24.630Z,6.88
2023-03-19T15:28:09.935Z,7.00
2023-03-19T15:30:52.335Z,7.25
2023-03-19T15:33:39.008Z,7.25
2023-03-19T15:36:17.290Z,6.97
2023-03-19T15:38:48.975Z,7.07
2023-03-19T15:41:18.631Z,6.75
2023-03-19T15:43:46.938Z,6.45
2023-03-19T15:46:21.134Z,6.72
2023-03-19T15:48:53.655Z,7.05
2023-03-19T15:51:24.474Z,6.63
2023-03-19T15:53:55.881Z,7.07
2023-03-19T15:56:26.876Z,7.70
2023-03-19T15:58:58.000Z,7.60
2023-03-19T16:01:27.904Z,6.93
2023-03-19T16:04:00.257Z,7.18
2023-03-19T16:06:31.444Z,7.80
2023-03-19T16:09:16.433Z,7.93
2023-03-19T16:11:46.028Z,7.60
2023-03-19T16:14:24.133Z,7.68
2023-03-19T16:16:52.984Z,7.65
2023-03-19T16:19:36.126Z,8.43
2023-03-19T16:22:13.958Z,6.57
2023-03-19T16:24:43.429Z,7.40
2023-03-19T16:27:15.148Z,7.10
2023-03-19T16:29:48.873Z,6.63
2023-03-19T16:32:21.485Z,6.30
2023-03-19T16:34:52.123Z,6.65
2023-03-19T16:37:44.005Z,5.90
2023-03-19T16:40:40.762Z,5.78
2023-03-19T16:43:13.883Z,5.85
2023-03-19T16:45:43.219Z,5.18
2023-03-19T16:48:11.436Z,4.63
2023-03-19T16:50:40.808Z,4.60
2023-03-19T16:53:21.267Z,4.53
2023-03-19T16:55:49.670Z,4.70
2023-03-19T16:58:19.096Z,4.57
2023-03-19T17:00:48.841Z,3.55
2023-03-19T17:03:18.945Z,4.13
2023-03-19T17:05:47.915Z,4.05
2023-03-19T17:08:17.242Z,3.80
2023-03-19T17:10:49.094Z,4.43
2023-03-19T17:13:20.729Z,4.20
2023-03-19T17:15:50.324Z,3.77
2023-03-19T17:18:20.190Z,3.90
2023-03-19T17:20:53.085Z,3.67
2023-03-19T17:23:24.878Z,3.95
2023-03-19T17:25:54.897Z,3.92
2023-03-19T17:28:22.966Z,3.38
2023-03-19T17:30:51.782Z,3.85
2023-03-19T17:33:24.629Z,3.75
2023-03-19T17:35:53.394Z,3.60
2023-03-19T17:38:23.745Z,3.50
2023-03-19T17:40:51.861Z,3.88
2023-03-19T17:43:19.702Z,3.53
2023-03-19T17:45:48.435Z,3.67
2023-03-19T17:48:21.365Z,3.13
2023-03-19T17:50:49.900Z,3.15
2023-03-19T17:53:18.669Z,3.03
2023-03-19T17:55:47.809Z,3.10
2023-03-19T17:58:18.585Z,3.20
2023-03-19T18:00:48.880Z,3.10
2023-03-19T18:03:19.064Z,2.95
2023-03-19T18:05:46.949Z,2.80
2023-03-19T18:08:16.576Z,2.75
2023-03-19T18:10:44.546Z,2.80
2023-03-19T18:13:13.716Z,3.03
2023-03-19T18:15:43.925Z,3.33
2023-03-19T18:18:17.824Z,3.15
2023-03-19T18:20:46.536Z,3.35
2023-03-19T18:23:16.871Z,3.55
2023-03-19T18:25:46.092Z,4.10
2023-03-19T18:28:16.012Z,4.40
2023-03-19T18:30:45.841Z,4.57
2023-03-19T18:33:17.388Z,5.10
2023-03-19T18:35:46.508Z,7.78
2023-03-19T18:38:17.528Z,9.80
2023-03-19T18:40:45.923Z,9.75
2023-03-19T18:43:16.035Z,7.97
2023-03-19T18:45:49.356Z,8.90
2023-03-19T18:48:26.463Z,9.80
2023-03-19T18:50:55.708Z,8.80
2023-03-19T18:53:24.150Z,8.18
2023-03-19T18:55:52.211Z,8.00
2023-03-19T18:58:23.561Z,7.85
2023-03-19T19:00:54.187Z,7.78
2023-03-19T19:03:28.335Z,7.40
2023-03-19T19:05:56.210Z,6.82
2023-03-19T19:08:25.289Z,7.10
2023-03-19T19:10:56.337Z,6.38
2023-03-19T19:13:27.240Z,7.30
2023-03-19T19:15:56.830Z,6.80
2023-03-19T19:18:26.889Z,6.30
2023-03-19T19:20:55.884Z,6.50
2023-03-19T19:23:26.596Z,6.47
2023-03-19T19:25:55.142Z,5.88
2023-03-19T19:28:26.680Z,6.40
2023-03-19T19:30:57.443Z,6.65
2023-03-19T19:33:27.655Z,8.13
2023-03-19T19:35:56.275Z,8.57
2023-03-19T19:38:23.955Z,7.20
2023-03-19T19:40:54.716Z,7.68
2023-03-19T19:43:26.878Z,7.78
2023-03-19T19:45:57.853Z,7.90
2023-03-19T19:48:27.679Z,8.00
2023-03-19T19:50:56.483Z,7.63
2023-03-19T19:53:26.144Z,7.75
2023-03-19T19:55:55.369Z,7.53
2023-03-19T19:58:27.037Z,8.13
2023-03-19T20:01:03.420Z,9.13
2023-03-19T20:03:33.897Z,13.40
2023-03-19T20:06:02.934Z,14.55
2023-03-19T20:08:30.723Z,14.85
2023-03-19T20:10:58.461Z,17.10
2023-03-19T20:13:28.960Z,16.50
2023-03-19T20:16:02.031Z,17.23
2023-03-19T20:18:33.277Z,17.90
2023-03-19T20:21:01.098Z,16.75
2023-03-19T20:23:29.236Z,16.85
2023-03-19T20:25:58.144Z,16.25
2023-03-19T20:28:30.878Z,15.73
2023-03-19T20:31:01.996Z,16.13
2023-03-19T20:33:31.152Z,15.85
2023-03-19T20:35:58.888Z,15.82
2023-03-19T20:38:29.214Z,14.88
2023-03-19T20:40:58.825Z,14.45
2023-03-19T20:43:29.977Z,16.05
2023-03-19T20:46:01.794Z,14.85
2023-03-19T20:51:01.966Z,15.35
2023-03-19T20:53:30.445Z,15.57
2023-03-19T20:55:59.951Z,16.38
2023-03-19T20:58:30.776Z,16.05
2023-03-19T21:01:00.196Z,15.38
2023-03-19T21:03:32.189Z,15.40
2023-03-19T21:06:03.892Z,16.00
2023-03-19T21:08:34.444Z,14.98
2023-03-19T21:11:02.965Z,14.52
2023-03-19T21:13:31.951Z,14.85
2023-03-19T21:16:01.879Z,14.40
2023-03-19T21:18:29.554Z,14.52
2023-03-19T21:20:58.763Z,15.00
2023-03-19T21:23:30.892Z,14.07
2023-03-19T21:26:00.874Z,14.18
2023-03-19T21:28:32.394Z,14.55
2023-03-19T21:33:31.536Z,15.00
2023-03-19T21:36:00.758Z,14.40
2023-03-19T21:38:29.354Z,15.00
2023-03-19T21:41:01.240Z,13.68
2023-03-19T21:46:17.384Z,14.05
2023-03-19T21:48:51.812Z,14.05
2023-03-19T21:51:19.644Z,14.68
2023-03-19T21:53:47.542Z,13.15
2023-03-19T21:56:22.301Z,13.38
2023-03-19T21:58:51.964Z,13.20
2023-03-19T22:01:23.510Z,13.57
2023-03-19T22:03:52.500Z,13.77
2023-03-19T22:06:21.877Z,13.80
2023-03-19T22:08:54.942Z,13.32
2023-03-19T22:11:26.900Z,13.20
2023-03-19T22:13:58.470Z,13.48
2023-03-19T22:16:28.884Z,13.00
2023-03-19T22:18:57.984Z,13.10
2023-03-19T22:21:25.589Z,13.27
2023-03-19T22:23:53.214Z,13.90
2023-03-19T22:26:31.850Z,14.18
2023-03-19T22:29:01.898Z,13.18
2023-03-19T22:31:31.959Z,12.60
2023-03-19T22:34:00.455Z,11.57
2023-03-19T22:36:29.046Z,11.93
2023-03-19T22:38:57.899Z,13.07
2023-03-19T22:41:30.136Z,12.73
2023-03-19T22:43:59.116Z,14.32
2023-03-19T22:46:27.635Z,12.65
2023-03-19T22:48:56.784Z,12.48
2023-03-19T22:51:28.070Z,11.32
2023-03-19T22:53:57.376Z,12.30
2023-03-19T22:56:24.958Z,13.10
2023-03-19T22:58:52.931Z,12.45
2023-03-19T23:01:31.265Z,12.23
2023-03-19T23:04:15.764Z,11.82
2023-03-19T23:06:44.354Z,12.60
2023-03-19T23:09:16.419Z,11.85
2023-03-19T23:11:44.012Z,13.20
2023-03-19T23:14:26.040Z,11.95
2023-03-19T23:16:56.782Z,10.77
2023-03-19T23:19:29.036Z,11.35
2023-03-19T23:21:58.995Z,12.82
2023-03-19T23:24:28.036Z,13.10
2023-03-19T23:26:58.953Z,13.07
2023-03-19T23:29:31.307Z,12.45
2023-03-19T23:31:59.358Z,12.85
2023-03-19T23:34:29.349Z,12.02
2023-03-19T23:36:59.785Z,12.70
2023-03-19T23:39:28.764Z,12.60
2023-03-19T23:41:59.026Z,12.88
2023-03-19T23:44:28.808Z,12.75
2023-03-19T23:46:59.812Z,13.77
2023-03-19T23:49:32.096Z,13.18
2023-03-19T23:52:00.523Z,13.25
2023-03-19T23:54:30.533Z,13.52
2023-03-19T23:57:00.967Z,12.57
2023-03-19T23:59:37.783Z,13.77
